Time;durP1;ratioP1;P1;durP2;ratioP2;P2;SDS_P1;SDS_P2;PMS_P1;PMS_P2;Temp;Humidity;BMP_temperature;BMP_pressure;BME280_temperature;BME280_humidity;BME280_pressure;Samples;Min_cycle;Max_cycle;Signal;HPM_P1;HPM_P2
2023/01/17 00:00:05;;;;;;;11.02;5.07;;;;;;;;;;5054127;28;20033;-72
2023/01/17 00:02:31;;;;;;;10.52;5.03;;;;;;;;;;5053905;28;20475;-72
2023/01/17 00:10:26;;;;;;;8.48;4.40;;;;;;;;;;5053895;28;20394;-72
2023/01/17 00:12:58;;;;;;;8.65;4.45;;;;;;;;;;5054004;28;20104;-72
2023/01/17 00:15:24;;;;;;;8.65;4.75;;;;;;;;;;5052721;28;20390;-72
2023/01/17 00:17:50;;;;;;;7.38;4.32;;;;;;;;;;5053522;28;20037;-71
2023/01/17 00:26:01;;;;;;;15.77;7.20;;;;;;;;;;5053973;28;20027;-72
2023/01/17 01:35:21;;;;;;;9.18;5.28;;;;;;;;;;5049008;28;20500;-71
2023/01/17 01:37:46;;;;;;;12.75;6.90;;;;;;;;;;5051075;28;20021;-71
2023/01/17 01:40:13;;;;;;;14.45;7.80;;;;;;;;;;5051127;28;20607;-71
2023/01/17 01:42:56;;;;;;;14.18;8.13;;;;;;;;;;5048359;28;20025;-71
2023/01/17 01:45:30;;;;;;;14.18;8.00;;;;;;;;;;5048643;28;20029;-70
2023/01/17 01:48:02;;;;;;;9.63;4.47;;;;;;;;;;5050865;28;20025;-71
2023/01/17 01:50:30;;;;;;;9.90;6.20;;;;;;;;;;5050939;28;20017;-71
2023/01/17 01:52:58;;;;;;;5.32;3.70;;;;;;;;;;5050449;28;20513;-72
2023/01/17 01:55:44;;;;;;;9.55;4.78;;;;;;;;;;5050992;28;20067;-71
2023/01/17 01:58:20;;;;;;;15.18;6.20;;;;;;;;;;5049377;28;20021;-71
2023/01/17 02:00:45;;;;;;;14.00;7.45;;;;;;;;;;5052383;28;20032;-72
2023/01/17 02:03:17;;;;;;;17.02;7.93;;;;;;;;;;5055160;28;20052;-71
2023/01/17 02:05:43;;;;;;;15.85;7.43;;;;;;;;;;5052737;28;20100;-71
2023/01/17 02:08:16;;;;;;;19.27;9.55;;;;;;;;;;5054956;28;20534;-71
2023/01/17 02:10:43;;;;;;;12.85;6.82;;;;;;;;;;5052647;28;20040;-71
2023/01/17 02:13:10;;;;;;;14.38;6.93;;;;;;;;;;5054689;28;20098;-71
2023/01/17 02:15:35;;;;;;;18.05;8.85;;;;;;;;;;5053475;28;20120;-71
2023/01/17 02:18:13;;;;;;;23.58;13.25;;;;;;;;;;5053377;28;20469;-71
2023/01/17 02:20:57;;;;;;;20.35;9.32;;;;;;;;;;5054648;28;20043;-71
2023/01/17 02:23:43;;;;;;;14.38;7.55;;;;;;;;;;5052461;28;20021;-72
2023/01/17 02:26:33;;;;;;;12.13;8.35;;;;;;;;;;5052896;28;20021;-72
2023/01/17 02:29:35;;;;;;;21.48;9.40;;;;;;;;;;5054554;28;20047;-71
2023/01/17 02:32:10;;;;;;;16.95;7.97;;;;;;;;;;5051953;28;20021;-73
2023/01/17 02:34:50;;;;;;;14.88;8.00;;;;;;;;;;5054529;28;20079;-71
2023/01/17 02:37:25;;;;;;;14.25;8.32;;;;;;;;;;5054385;28;20491;-71
2023/01/17 02:39:59;;;;;;;16.13;8.60;;;;;;;;;;5054387;28;20542;-71
2023/01/17 02:42:31;;;;;;;14.18;7.88;;;;;;;;;;5052021;28;20397;-71
2023/01/17 02:44:56;;;;;;;21.33;10.10;;;;;;;;;;5054329;28;20021;-71
2023/01/17 02:47:28;;;;;;;18.38;10.02;;;;;;;;;;5052899;28;20600;-71
2023/01/17 02:50:00;;;;;;;16.77;9.00;;;;;;;;;;5054128;28;20520;-71
2023/01/17 02:52:48;;;;;;;19.70;10.73;;;;;;;;;;5052059;28;20021;-71
2023/01/17 02:55:25;;;;;;;20.30;10.63;;;;;;;;;;5053203;28;20051;-71
2023/01/17 02:58:15;;;;;;;17.67;9.45;;;;;;;;;;5051514;28;20031;-71
2023/01/17 03:00:52;;;;;;;18.53;9.43;;;;;;;;;;5051423;28;20040;-71
2023/01/17 03:03:36;;;;;;;18.25;8.35;;;;;;;;;;5053908;28;20159;-71
2023/01/17 03:06:18;;;;;;;21.17;10.63;;;;;;;;;;5051332;28;20024;-71
2023/01/17 03:08:46;;;;;;;20.27;10.15;;;;;;;;;;5051622;28;20035;-71
2023/01/17 03:11:12;;;;;;;24.40;10.73;;;;;;;;;;5053661;28;20112;-71
2023/01/17 03:13:38;;;;;;;16.73;7.10;;;;;;;;;;5053560;28;20021;-71
2023/01/17 03:16:07;;;;;;;20.40;10.95;;;;;;;;;;5053775;28;20032;-71
2023/01/17 03:18:33;;;;;;;15.82;8.25;;;;;;;;;;5053420;28;20037;-71
2023/01/17 03:20:59;;;;;;;14.40;6.07;;;;;;;;;;5053518;28;20094;-71
2023/01/17 03:23:24;;;;;;;14.65;7.70;;;;;;;;;;5053712;28;20093;-72
2023/01/17 03:25:50;;;;;;;20.98;10.05;;;;;;;;;;5053191;28;20543;-70
2023/01/17 03:28:15;;;;;;;13.38;7.72;;;;;;;;;;5053708;28;20036;-71
2023/01/17 03:30:40;;;;;;;20.75;10.63;;;;;;;;;;5053523;28;20017;-71
2023/01/17 03:33:06;;;;;;;23.73;9.98;;;;;;;;;;5053539;28;20047;-70
2023/01/17 03:35:31;;;;;;;15.95;8.13;;;;;;;;;;5053611;28;20031;-71
2023/01/17 03:37:57;;;;;;;15.73;7.43;;;;;;;;;;5053345;28;20028;-71
2023/01/17 03:40:22;;;;;;;21.38;11.57;;;;;;;;;;5053047;28;20112;-70
2023/01/17 03:42:47;;;;;;;22.85;10.27;;;;;;;;;;5052992;28;20040;-70
2023/01/17 03:45:13;;;;;;;20.73;10.70;;;;;;;;;;5053266;28;20077;-71
2023/01/17 03:47:38;;;;;;;14.00;9.00;;;;;;;;;;5053031;28;20032;-71
2023/01/17 03:50:05;;;;;;;13.38;7.85;;;;;;;;;;5053021;28;20494;-71
2023/01/17 03:52:31;;;;;;;20.30;10.88;;;;;;;;;;5053031;28;20052;-71
2023/01/17 03:54:56;;;;;;;21.90;10.68;;;;;;;;;;5052416;28;20375;-71
2023/01/17 03:57:22;;;;;;;17.27;9.38;;;;;;;;;;5052968;28;20031;-70
2023/01/17 03:59:47;;;;;;;18.42;9.30;;;;;;;;;;5052774;28;20047;-71
2023/01/17 04:02:13;;;;;;;20.85;10.38;;;;;;;;;;5052843;28;20029;-73
2023/01/17 04:04:38;;;;;;;13.82;8.32;;;;;;;;;;5052773;28;20025;-73
2023/01/17 04:07:03;;;;;;;19.92;9.95;;;;;;;;;;5052797;28;20096;-71
2023/01/17 04:09:32;;;;;;;16.85;10.13;;;;;;;;;;5052662;28;20108;-71
2023/01/17 04:11:59;;;;;;;19.80;9.93;;;;;;;;;;5052667;28;20370;-71
2023/01/17 04:14:24;;;;;;;15.32;8.32;;;;;;;;;;5052591;28;20078;-71
2023/01/17 04:16:49;;;;;;;18.20;9.82;;;;;;;;;;5052393;28;20040;-71
2023/01/17 04:19:15;;;;;;;13.80;7.88;;;;;;;;;;5052636;28;20021;-71
2023/01/17 04:21:40;;;;;;;17.58;8.55;;;;;;;;;;5052148;28;20082;-71
2023/01/17 04:24:06;;;;;;;17.83;10.15;;;;;;;;;;5052241;28;20386;-71
2023/01/17 04:26:31;;;;;;;21.02;9.93;;;;;;;;;;5050665;28;20033;-71
2023/01/17 04:28:57;;;;;;;12.15;5.85;;;;;;;;;;5052360;28;20108;-71
2023/01/17 04:31:22;;;;;;;18.45;9.65;;;;;;;;;;5052457;28;20083;-71
2023/01/17 04:33:47;;;;;;;18.63;9.73;;;;;;;;;;5052357;28;20028;-71
2023/01/17 04:36:13;;;;;;;13.90;7.07;;;;;;;;;;5052158;28;20559;-71
2023/01/17 04:38:38;;;;;;;12.30;5.95;;;;;;;;;;5051938;28;20021;-71
2023/01/17 04:41:04;;;;;;;14.95;7.25;;;;;;;;;;5051970;28;20028;-71
2023/01/17 04:43:29;;;;;;;14.77;6.95;;;;;;;;;;5052100;28;20021;-70
2023/01/17 04:45:58;;;;;;;16.10;7.10;;;;;;;;;;5052080;28;20040;-71
2023/01/17 04:48:24;;;;;;;13.63;7.93;;;;;;;;;;5049387;28;20029;-70
2023/01/17 04:50:50;;;;;;;18.75;8.93;;;;;;;;;;5051999;28;20029;-71
2023/01/17 04:53:15;;;;;;;16.10;7.95;;;;;;;;;;5051812;28;20064;-70
2023/01/17 04:55:44;;;;;;;14.52;8.32;;;;;;;;;;5051722;28;20474;-70
2023/01/17 04:58:10;;;;;;;16.58;7.70;;;;;;;;;;5051828;28;20428;-70
2023/01/17 05:00:35;;;;;;;13.55;7.40;;;;;;;;;;5051783;28;20028;-70
2023/01/17 05:03:01;;;;;;;11.98;6.45;;;;;;;;;;5051678;28;20082;-70
2023/01/17 05:05:26;;;;;;;20.50;7.93;;;;;;;;;;5051620;28;20493;-70
2023/01/17 05:07:56;;;;;;;11.85;6.80;;;;;;;;;;5051591;28;20017;-71
2023/01/17 05:10:22;;;;;;;12.88;8.15;;;;;;;;;;5051575;28;20025;-70
2023/01/17 05:12:58;;;;;;;8.90;4.75;;;;;;;;;;5051313;28;20029;-71
2023/01/17 05:15:25;;;;;;;11.57;6.35;;;;;;;;;;5047701;28;20378;-70
2023/01/17 05:17:51;;;;;;;13.30;7.20;;;;;;;;;;5051411;28;20134;-71
2023/01/17 05:20:18;;;;;;;16.00;7.85;;;;;;;;;;5051071;28;20043;-71
2023/01/17 05:22:43;;;;;;;13.88;7.43;;;;;;;;;;5051114;28;20025;-70
2023/01/17 05:25:09;;;;;;;13.68;6.53;;;;;;;;;;5051377;28;20039;-71
2023/01/17 05:27:34;;;;;;;12.88;7.65;;;;;;;;;;5051163;28;20032;-71
2023/01/17 05:30:00;;;;;;;13.15;7.00;;;;;;;;;;5051150;28;20379;-71
2023/01/17 05:32:25;;;;;;;14.63;7.93;;;;;;;;;;5051299;28;20017;-70
2023/01/17 05:34:51;;;;;;;15.32;8.55;;;;;;;;;;5050388;28;20047;-71
2023/01/17 05:37:16;;;;;;;9.50;5.10;;;;;;;;;;5051035;28;20148;-70
2023/01/17 05:39:42;;;;;;;16.08;8.43;;;;;;;;;;5050786;28;20114;-70
2023/01/17 05:42:07;;;;;;;13.80;7.50;;;;;;;;;;5051171;28;20021;-70
2023/01/17 05:44:32;;;;;;;14.48;7.47;;;;;;;;;;5051048;28;20013;-71
2023/01/17 05:46:58;;;;;;;14.88;7.22;;;;;;;;;;5049736;28;20082;-71
2023/01/17 05:49:23;;;;;;;11.52;5.90;;;;;;;;;;5050917;28;20375;-70
2023/01/17 05:51:49;;;;;;;13.23;7.88;;;;;;;;;;5050756;28;20099;-70
2023/01/17 05:54:14;;;;;;;12.05;7.22;;;;;;;;;;5050679;28;20051;-70
2023/01/17 05:56:40;;;;;;;13.32;7.63;;;;;;;;;;5049195;28;20035;-71
2023/01/17 05:59:05;;;;;;;8.65;6.03;;;;;;;;;;5050936;28;20025;-71
2023/01/17 06:01:31;;;;;;;16.38;8.35;;;;;;;;;;5050905;28;20538;-71
2023/01/17 06:03:56;;;;;;;14.63;7.25;;;;;;;;;;5050916;28;20036;-72
2023/01/17 06:06:22;;;;;;;12.65;6.90;;;;;;;;;;5050501;28;20736;-70
2023/01/17 06:08:48;;;;;;;12.25;7.28;;;;;;;;;;5050846;28;20386;-71
2023/01/17 06:11:13;;;;;;;14.05;7.45;;;;;;;;;;5050818;28;20028;-71
2023/01/17 06:13:39;;;;;;;14.38;7.55;;;;;;;;;;5050772;28;20029;-72
2023/01/17 06:16:04;;;;;;;15.10;6.97;;;;;;;;;;5050534;28;20021;-72
2023/01/17 06:18:30;;;;;;;13.50;7.03;;;;;;;;;;5050645;28;20037;-71
2023/01/17 06:20:56;;;;;;;12.13;6.35;;;;;;;;;;5050602;28;20021;-70
2023/01/17 06:23:22;;;;;;;11.07;5.63;;;;;;;;;;5050720;28;20485;-70
2023/01/17 06:25:49;;;;;;;11.38;5.43;;;;;;;;;;5050592;28;20017;-71
2023/01/17 06:28:17;;;;;;;15.20;7.82;;;;;;;;;;5050557;28;20041;-72
2023/01/17 06:30:43;;;;;;;15.85;8.13;;;;;;;;;;5050602;28;20036;-72
2023/01/17 06:33:09;;;;;;;13.23;7.03;;;;;;;;;;5050418;28;20029;-72
2023/01/17 06:35:37;;;;;;;12.48;6.82;;;;;;;;;;5050617;28;20029;-70
2023/01/17 06:38:02;;;;;;;12.40;7.10;;;;;;;;;;5050502;28;20536;-70
2023/01/17 06:40:28;;;;;;;14.90;7.15;;;;;;;;;;5050364;28;20028;-71
2023/01/17 06:43:01;;;;;;;11.20;6.18;;;;;;;;;;5050551;28;20427;-72
2023/01/17 06:45:28;;;;;;;12.43;6.60;;;;;;;;;;5049235;28;20079;-72
2023/01/17 06:47:54;;;;;;;10.95;5.65;;;;;;;;;;5052623;28;20059;-72
2023/01/17 06:50:20;;;;;;;10.40;5.43;;;;;;;;;;5054087;28;20060;-71
2023/01/17 06:52:56;;;;;;;10.07;5.88;;;;;;;;;;5053985;28;20055;-70
2023/01/17 06:55:23;;;;;;;10.18;6.15;;;;;;;;;;5053957;28;20013;-69
2023/01/17 06:57:49;;;;;;;8.13;5.18;;;;;;;;;;5052000;28;20099;-70
2023/01/17 07:00:15;;;;;;;11.02;5.43;;;;;;;;;;5053906;28;20083;-70
2023/01/17 07:02:41;;;;;;;10.45;5.57;;;;;;;;;;5053331;28;20025;-71
2023/01/17 07:05:07;;;;;;;7.05;3.83;;;;;;;;;;5053954;28;20348;-70
2023/01/17 07:07:33;;;;;;;7.18;3.25;;;;;;;;;;5053673;28;20029;-70
2023/01/17 07:09:59;;;;;;;6.60;3.78;;;;;;;;;;5052409;28;20063;-71
2023/01/17 07:12:24;;;;;;;6.30;3.80;;;;;;;;;;5053672;28;20390;-69
2023/01/17 07:14:50;;;;;;;7.80;3.97;;;;;;;;;;5053677;28;20482;-70
2023/01/17 07:17:15;;;;;;;7.38;3.08;;;;;;;;;;5053126;28;20497;-70
2023/01/17 07:19:41;;;;;;;6.18;3.60;;;;;;;;;;5054076;28;20036;-70
2023/01/17 07:22:09;;;;;;;4.20;2.45;;;;;;;;;;5054322;28;20155;-70
2023/01/17 07:24:36;;;;;;;5.63;2.97;;;;;;;;;;5052985;28;20335;-70
2023/01/17 07:27:01;;;;;;;5.07;2.72;;;;;;;;;;5054307;28;20387;-70
2023/01/17 07:29:27;;;;;;;5.28;2.60;;;;;;;;;;5053587;28;20021;-70
2023/01/17 07:31:52;;;;;;;4.72;2.80;;;;;;;;;;5054342;28;20396;-69
2023/01/17 07:34:17;;;;;;;5.15;3.10;;;;;;;;;;5054262;28;20029;-69
2023/01/17 07:36:43;;;;;;;3.72;2.20;;;;;;;;;;5054170;28;20025;-69
2023/01/17 07:39:09;;;;;;;4.57;2.65;;;;;;;;;;5054355;28;20748;-70
2023/01/17 07:41:39;;;;;;;4.78;2.47;;;;;;;;;;5054145;28;20478;-69
2023/01/17 07:44:14;;;;;;;4.82;2.83;;;;;;;;;;5054091;28;20364;-70
2023/01/17 07:46:40;;;;;;;7.70;3.22;;;;;;;;;;5053733;28;20052;-70
2023/01/17 07:49:05;;;;;;;4.10;2.50;;;;;;;;;;5053489;28;20525;-70
2023/01/17 07:51:30;;;;;;;5.20;3.00;;;;;;;;;;5053291;28;20437;-69
2023/01/17 07:53:56;;;;;;;3.70;2.63;;;;;;;;;;5053531;28;20021;-69
2023/01/17 07:56:22;;;;;;;3.92;2.60;;;;;;;;;;5052812;28;20048;-70
2023/01/17 07:58:48;;;;;;;4.40;2.53;;;;;;;;;;5052985;28;20034;-70
2023/01/17 08:01:14;;;;;;;5.10;2.90;;;;;;;;;;5053428;28;20042;-70
2023/01/17 08:03:40;;;;;;;5.05;2.50;;;;;;;;;;5049730;28;20040;-70
2023/01/17 08:06:13;;;;;;;4.68;2.97;;;;;;;;;;5053613;28;20424;-70
2023/01/17 08:08:38;;;;;;;3.33;2.00;;;;;;;;;;5054176;28;20493;-70
2023/01/17 08:11:04;;;;;;;3.88;2.70;;;;;;;;;;5053859;28;20025;-70
2023/01/17 08:13:29;;;;;;;3.03;2.22;;;;;;;;;;5053811;28;20025;-70
2023/01/17 08:15:55;;;;;;;4.32;2.88;;;;;;;;;;5053750;28;20035;-70
2023/01/17 08:18:20;;;;;;;3.97;2.70;;;;;;;;;;5053653;28;20398;-70
2023/01/17 08:20:45;;;;;;;3.97;2.65;;;;;;;;;;5053642;28;20029;-70
2023/01/17 08:23:11;;;;;;;4.38;2.60;;;;;;;;;;5053855;28;20370;-70
2023/01/17 08:25:37;;;;;;;3.75;2.30;;;;;;;;;;5053467;28;20024;-70
2023/01/17 08:28:02;;;;;;;6.90;2.88;;;;;;;;;;5053564;28;20032;-70
2023/01/17 08:30:28;;;;;;;3.88;2.38;;;;;;;;;;5053297;28;20050;-70
2023/01/17 08:32:54;;;;;;;5.20;2.75;;;;;;;;;;5053484;28;20016;-71
2023/01/17 08:35:20;;;;;;;5.65;2.60;;;;;;;;;;5053435;28;20025;-70
2023/01/17 08:37:47;;;;;;;5.53;2.55;;;;;;;;;;5053395;28;20088;-70
2023/01/17 08:40:16;;;;;;;4.57;2.63;;;;;;;;;;5053493;28;20107;-70
2023/01/17 08:42:43;;;;;;;3.40;2.35;;;;;;;;;;5053337;28;20036;-70
2023/01/17 08:45:10;;;;;;;4.05;2.35;;;;;;;;;;5050317;28;20025;-70
2023/01/17 08:47:37;;;;;;;4.20;2.53;;;;;;;;;;5041757;28;20093;-70
2023/01/17 08:50:05;;;;;;;4.38;2.20;;;;;;;;;;5051816;28;20198;-70
2023/01/17 08:52:31;;;;;;;4.65;2.42;;;;;;;;;;5053274;28;20028;-70
2023/01/17 08:54:57;;;;;;;4.35;2.40;;;;;;;;;;5053141;28;20036;-70
2023/01/17 08:57:22;;;;;;;3.78;2.10;;;;;;;;;;5053031;28;20033;-70
2023/01/17 08:59:48;;;;;;;1.85;1.50;;;;;;;;;;5052911;28;20029;-70
2023/01/17 09:02:15;;;;;;;2.92;1.50;;;;;;;;;;5052650;28;20028;-69
2023/01/17 09:04:47;;;;;;;4.30;1.98;;;;;;;;;;5052850;28;20025;-69
2023/01/17 09:07:14;;;;;;;2.40;1.63;;;;;;;;;;5052698;28;20024;-70
2023/01/17 09:09:39;;;;;;;1.73;1.23;;;;;;;;;;5052873;28;20033;-70
2023/01/17 09:12:05;;;;;;;1.63;1.20;;;;;;;;;;5052986;28;20024;-69
2023/01/17 09:14:31;;;;;;;1.92;1.42;;;;;;;;;;5052719;28;20025;-70
2023/01/17 09:16:56;;;;;;;2.22;1.60;;;;;;;;;;5052567;28;20048;-69
2023/01/17 09:19:22;;;;;;;2.10;1.50;;;;;;;;;;5052890;28;20032;-70
2023/01/17 09:21:47;;;;;;;2.45;1.50;;;;;;;;;;5052716;28;20029;-70
2023/01/17 09:24:13;;;;;;;4.57;1.30;;;;;;;;;;5052833;28;20533;-70
2023/01/17 09:26:38;;;;;;;2.42;1.50;;;;;;;;;;5052492;28;20037;-70
2023/01/17 09:29:03;;;;;;;2.15;1.40;;;;;;;;;;5052441;28;20078;-70
2023/01/17 09:31:29;;;;;;;1.83;1.38;;;;;;;;;;5052673;28;20469;-70
2023/01/17 09:33:56;;;;;;;3.22;1.45;;;;;;;;;;5052159;28;20314;-70
2023/01/17 09:36:22;;;;;;;2.13;1.48;;;;;;;;;;5052568;28;20470;-70
2023/01/17 09:38:48;;;;;;;2.35;1.55;;;;;;;;;;5052564;28;20033;-70
2023/01/17 09:41:20;;;;;;;3.03;1.60;;;;;;;;;;5051189;28;20033;-70
2023/01/17 09:44:20;;;;;;;5.00;1.70;;;;;;;;;;5052528;28;20494;-70
2023/01/17 09:46:48;;;;;;;2.00;1.52;;;;;;;;;;5052448;28;20150;-70
2023/01/17 09:49:25;;;;;;;2.95;2.03;;;;;;;;;;5052529;28;20033;-70
2023/01/17 09:51:52;;;;;;;4.82;2.13;;;;;;;;;;5052534;28;20068;-70
2023/01/17 09:54:22;;;;;;;4.93;2.00;;;;;;;;;;5051154;28;20501;-70
2023/01/17 09:57:28;;;;;;;2.28;1.80;;;;;;;;;;5051960;28;20016;-70
2023/01/17 10:00:14;;;;;;;1.95;1.55;;;;;;;;;;5052147;28;20037;-69
2023/01/17 10:02:59;;;;;;;2.22;1.60;;;;;;;;;;5052272;28;20029;-69
2023/01/17 10:05:51;;;;;;;2.60;2.00;;;;;;;;;;5052074;28;20029;-69
2023/01/17 10:08:44;;;;;;;2.22;1.67;;;;;;;;;;5051884;28;20466;-70
2023/01/17 10:11:30;;;;;;;2.45;1.42;;;;;;;;;;5051579;28;20025;-70
2023/01/17 10:14:18;;;;;;;3.03;1.80;;;;;;;;;;5052241;28;20086;-70
2023/01/17 10:17:15;;;;;;;5.03;1.70;;;;;;;;;;5051792;28;20072;-69
2023/01/17 10:19:58;;;;;;;2.60;1.70;;;;;;;;;;5051265;28;20033;-69
2023/01/17 10:23:05;;;;;;;2.90;1.88;;;;;;;;;;5056253;28;20036;-69
2023/01/17 10:25:41;;;;;;;2.92;1.80;;;;;;;;;;5053496;28;20142;-69
2023/01/17 10:28:22;;;;;;;13.27;2.10;;;;;;;;;;5053828;28;20455;-70
2023/01/17 10:30:49;;;;;;;2.42;1.55;;;;;;;;;;5050722;28;20474;-69
2023/01/17 10:33:24;;;;;;;2.00;1.50;;;;;;;;;;5034051;28;20029;-69
2023/01/17 10:35:55;;;;;;;4.00;2.47;;;;;;;;;;5033700;28;20071;-69
2023/01/17 10:38:26;;;;;;;2.90;1.50;;;;;;;;;;5033507;28;20041;-69
2023/01/17 10:41:01;;;;;;;2.17;1.50;;;;;;;;;;5033410;28;20041;-69
2023/01/17 10:43:43;;;;;;;1.60;1.27;;;;;;;;;;5033618;28;20498;-69
2023/01/17 10:46:16;;;;;;;1.48;1.05;;;;;;;;;;5033369;28;20033;-70
2023/01/17 10:48:45;;;;;;;2.10;1.20;;;;;;;;;;5033309;28;20407;-71
2023/01/17 10:51:22;;;;;;;2.72;1.30;;;;;;;;;;5033234;28;20021;-69
2023/01/17 10:54:00;;;;;;;1.13;0.90;;;;;;;;;;5033398;28;20095;-70
2023/01/17 10:56:27;;;;;;;1.67;1.05;;;;;;;;;;5033207;28;20489;-70
2023/01/17 10:59:18;;;;;;;1.50;1.00;;;;;;;;;;5033163;28;20030;-70
2023/01/17 11:01:44;;;;;;;1.98;1.05;;;;;;;;;;5047794;28;20055;-70
2023/01/17 11:04:17;;;;;;;1.73;1.15;;;;;;;;;;5054559;28;20438;-70
2023/01/17 11:06:46;;;;;;;3.83;1.17;;;;;;;;;;5054438;28;20032;-71
2023/01/17 11:09:12;;;;;;;0.88;0.80;;;;;;;;;;5054980;28;20031;-70
2023/01/17 11:11:47;;;;;;;1.35;0.90;;;;;;;;;;5055110;28;20478;-70
2023/01/17 11:14:23;;;;;;;1.58;1.02;;;;;;;;;;5055254;28;20086;-70
2023/01/17 11:17:03;;;;;;;1.00;0.82;;;;;;;;;;5054886;28;20052;-70
2023/01/17 11:19:31;;;;;;;1.00;0.85;;;;;;;;;;5055163;28;20079;-70
2023/01/17 11:22:03;;;;;;;0.90;0.80;;;;;;;;;;5054974;28;20082;-70
2023/01/17 11:24:39;;;;;;;0.70;0.70;;;;;;;;;;5054865;28;20532;-70
2023/01/17 11:27:06;;;;;;;1.08;0.80;;;;;;;;;;5054619;28;20028;-70
2023/01/17 11:29:37;;;;;;;1.08;0.80;;;;;;;;;;5053476;28;20056;-70
2023/01/17 11:32:28;;;;;;;1.83;0.90;;;;;;;;;;5053412;28;20037;-70
2023/01/17 11:35:17;;;;;;;0.70;0.70;;;;;;;;;;5054679;28;20029;-70
2023/01/17 11:38:03;;;;;;;1.00;0.90;;;;;;;;;;5054474;28;20032;-70
2023/01/17 11:40:28;;;;;;;2.42;1.02;;;;;;;;;;5054822;28;20025;-69
2023/01/17 11:43:18;;;;;;;0.95;0.80;;;;;;;;;;5054469;28;20025;-70
2023/01/17 11:45:58;;;;;;;0.60;0.60;;;;;;;;;;5054147;28;20044;-70
2023/01/17 11:48:23;;;;;;;0.90;0.80;;;;;;;;;;5054475;28;20112;-71
2023/01/17 11:50:52;;;;;;;0.95;0.80;;;;;;;;;;5054067;28;20104;-70
2023/01/17 11:53:23;;;;;;;1.90;1.27;;;;;;;;;;5054230;28;20033;-70
2023/01/17 11:56:05;;;;;;;3.22;1.00;;;;;;;;;;5054293;28;20061;-71
2023/01/17 11:58:33;;;;;;;2.22;1.10;;;;;;;;;;5048552;28;20105;-70
2023/01/17 12:01:06;;;;;;;0.70;0.65;;;;;;;;;;5042609;28;20505;-70
2023/01/17 12:03:43;;;;;;;0.85;0.68;;;;;;;;;;5053434;28;20033;-70
2023/01/17 12:06:28;;;;;;;0.90;0.80;;;;;;;;;;5050809;28;20032;-70
2023/01/17 12:08:53;;;;;;;1.25;0.80;;;;;;;;;;5053555;28;20029;-70
2023/01/17 12:11:19;;;;;;;1.52;0.70;;;;;;;;;;5052798;28;20486;-70
2023/01/17 12:13:59;;;;;;;1.40;0.70;;;;;;;;;;5053733;28;20067;-71
2023/01/17 12:16:46;;;;;;;2.08;0.70;;;;;;;;;;5053343;28;20032;-70
2023/01/17 12:19:22;;;;;;;3.03;0.93;;;;;;;;;;5051429;28;20025;-70
2023/01/17 12:22:07;;;;;;;1.83;1.08;;;;;;;;;;5053211;28;20035;-70
2023/01/17 12:24:51;;;;;;;1.20;0.73;;;;;;;;;;5053367;28;20029;-70
2023/01/17 12:27:25;;;;;;;1.60;0.80;;;;;;;;;;5049990;28;20470;-70
2023/01/17 12:30:18;;;;;;;2.03;1.00;;;;;;;;;;5052780;28;20082;-70
2023/01/17 12:32:49;;;;;;;1.27;0.80;;;;;;;;;;5052457;28;20018;-70
2023/01/17 12:35:37;;;;;;;2.90;0.90;;;;;;;;;;5053133;28;20029;-70
2023/01/17 12:38:08;;;;;;;1.35;0.80;;;;;;;;;;5052195;28;20021;-71
2023/01/17 12:40:41;;;;;;;3.35;0.85;;;;;;;;;;5052219;28;20100;-70
2023/01/17 12:43:38;;;;;;;1.15;0.80;;;;;;;;;;5049585;28;20119;-70
2023/01/17 12:46:29;;;;;;;0.73;0.60;;;;;;;;;;5033222;28;20036;-70
2023/01/17 12:49:19;;;;;;;3.35;0.90;;;;;;;;;;5049751;28;20027;-70
2023/01/17 12:51:49;;;;;;;2.13;1.00;;;;;;;;;;5052312;28;20090;-70
2023/01/17 12:54:25;;;;;;;3.08;0.85;;;;;;;;;;5052544;28;20105;-70
2023/01/17 12:57:00;;;;;;;4.93;1.30;;;;;;;;;;5047765;28;20021;-70
2023/01/17 12:59:57;;;;;;;1.35;0.70;;;;;;;;;;5052297;28;20474;-70
2023/01/17 13:02:51;;;;;;;3.85;0.68;;;;;;;;;;5053110;28;20072;-70
2023/01/17 13:05:31;;;;;;;3.20;0.70;;;;;;;;;;5052922;28;20048;-70
2023/01/17 13:08:22;;;;;;;2.07;1.00;;;;;;;;;;5051609;28;20359;-70
2023/01/17 13:10:51;;;;;;;2.28;0.80;;;;;;;;;;5049963;28;20043;-70
2023/01/17 13:13:24;;;;;;;0.68;0.60;;;;;;;;;;5052923;28;20053;-70
2023/01/17 13:16:16;;;;;;;1.85;0.85;;;;;;;;;;5052821;28;20036;-71
2023/01/17 13:18:46;;;;;;;3.72;0.80;;;;;;;;;;5052796;28;20494;-70
2023/01/17 13:21:33;;;;;;;3.17;0.85;;;;;;;;;;5052550;28;20489;-70
2023/01/17 13:24:08;;;;;;;1.83;0.90;;;;;;;;;;5052691;28;20045;-70
2023/01/17 13:26:55;;;;;;;0.80;0.70;;;;;;;;;;5052782;28;20021;-70
2023/01/17 13:29:43;;;;;;;1.95;0.95;;;;;;;;;;5052756;28;20025;-70
2023/01/17 13:32:17;;;;;;;1.83;0.73;;;;;;;;;;5052624;28;20368;-70
2023/01/17 13:35:05;;;;;;;1.13;0.70;;;;;;;;;;5052297;28;20036;-70
2023/01/17 13:37:40;;;;;;;1.65;0.70;;;;;;;;;;5030023;28;20033;-71
2023/01/17 13:40:11;;;;;;;4.43;1.27;;;;;;;;;;5013481;28;20103;-70
2023/01/17 13:42:58;;;;;;;2.45;0.73;;;;;;;;;;5030380;28;20067;-70
2023/01/17 13:45:32;;;;;;;0.98;0.80;;;;;;;;;;5030391;28;20029;-70
2023/01/17 13:48:19;;;;;;;2.25;0.70;;;;;;;;;;5030190;28;20041;-70
2023/01/17 13:50:54;;;;;;;0.82;0.60;;;;;;;;;;5030054;28;20033;-70
2023/01/17 13:53:35;;;;;;;1.40;0.80;;;;;;;;;;5030200;28;20052;-70
2023/01/17 13:56:23;;;;;;;1.65;0.90;;;;;;;;;;5029137;28;20494;-70
2023/01/17 14:01:37;;;;;;;1.75;0.70;;;;;;;;;;5027992;28;20056;-70
2023/01/17 14:04:10;;;;;;;1.70;1.10;;;;;;;;;;5014914;28;20034;-70
2023/01/17 14:06:43;;;;;;;2.92;0.60;;;;;;;;;;5028606;28;20110;-70
2023/01/17 14:09:11;;;;;;;0.90;0.60;;;;;;;;;;5028728;28;20056;-70
2023/01/17 14:11:55;;;;;;;1.13;0.70;;;;;;;;;;5028543;28;20026;-70
2023/01/17 14:14:39;;;;;;;1.52;0.73;;;;;;;;;;5030075;28;20034;-70
2023/01/17 14:17:16;;;;;;;0.70;0.70;;;;;;;;;;5031812;28;20045;-70
2023/01/17 14:19:43;;;;;;;7.95;0.90;;;;;;;;;;5031936;28;20037;-70
2023/01/17 14:22:17;;;;;;;2.03;0.95;;;;;;;;;;5032255;28;20029;-70
2023/01/17 14:25:13;;;;;;;6.22;1.30;;;;;;;;;;5032064;28;20033;-69
2023/01/17 14:27:47;;;;;;;5.28;1.92;;;;;;;;;;5027645;28;20713;-70
2023/01/17 14:30:16;;;;;;;1.70;0.93;;;;;;;;;;5032279;28;20109;-70
2023/01/17 14:33:08;;;;;;;1.40;0.85;;;;;;;;;;5031926;28;20045;-70
2023/01/17 14:35:36;;;;;;;3.92;1.00;;;;;;;;;;5042973;28;20474;-70
2023/01/17 14:38:04;;;;;;;2.75;0.98;;;;;;;;;;5051724;28;20053;-70
2023/01/17 14:40:36;;;;;;;2.88;1.08;;;;;;;;;;5051622;28;20036;-70
2023/01/17 14:43:05;;;;;;;2.83;1.17;;;;;;;;;;5050460;28;20355;-70
2023/01/17 14:45:32;;;;;;;7.63;1.05;;;;;;;;;;5051850;28;20394;-70
2023/01/17 14:48:01;;;;;;;1.70;1.00;;;;;;;;;;5051531;28;20040;-69
2023/01/17 14:50:29;;;;;;;3.65;1.20;;;;;;;;;;5051644;28;20033;-69
2023/01/17 14:53:12;;;;;;;2.58;1.10;;;;;;;;;;5051584;28;20104;-70
2023/01/17 14:55:47;;;;;;;2.05;1.10;;;;;;;;;;5051626;28;20067;-70
2023/01/17 14:58:26;;;;;;;3.10;1.15;;;;;;;;;;5051376;28;20033;-70
2023/01/17 15:00:58;;;;;;;3.70;1.20;;;;;;;;;;5051386;28;20419;-70
2023/01/17 15:03:24;;;;;;;2.45;1.10;;;;;;;;;;5051727;28;20025;-70
2023/01/17 15:05:51;;;;;;;1.25;0.95;;;;;;;;;;5051677;28;20463;-70
2023/01/17 15:08:20;;;;;;;3.70;1.48;;;;;;;;;;5055070;28;20100;-70
2023/01/17 15:10:54;;;;;;;3.25;1.55;;;;;;;;;;5055072;28;20036;-70
2023/01/17 15:13:26;;;;;;;4.70;1.42;;;;;;;;;;5055107;28;20413;-70
2023/01/17 15:16:15;;;;;;;6.32;1.38;;;;;;;;;;5054583;28;20446;-70
2023/01/17 15:18:41;;;;;;;2.92;1.10;;;;;;;;;;5055063;28;20053;-69
2023/01/17 15:21:10;;;;;;;2.47;0.93;;;;;;;;;;5050744;28;20124;-69
2023/01/17 15:23:42;;;;;;;3.70;1.40;;;;;;;;;;5037364;28;20060;-70
2023/01/17 15:26:12;;;;;;;6.85;1.40;;;;;;;;;;5054946;28;20082;-69
2023/01/17 15:28:38;;;;;;;3.85;1.30;;;;;;;;;;5040961;28;20029;-69
2023/01/17 15:31:07;;;;;;;2.90;1.23;;;;;;;;;;5034819;28;20175;-69
2023/01/17 15:33:36;;;;;;;3.20;1.17;;;;;;;;;;5040175;28;20036;-69
2023/01/17 15:36:08;;;;;;;9.20;2.03;;;;;;;;;;5041413;28;20025;-69
2023/01/17 15:38:36;;;;;;;6.63;2.20;;;;;;;;;;5040343;28;20107;-68
2023/01/17 15:41:12;;;;;;;4.78;1.85;;;;;;;;;;5038677;28;20611;-69
2023/01/17 15:43:39;;;;;;;5.78;1.80;;;;;;;;;;5037691;28;20105;-69
2023/01/17 15:46:05;;;;;;;4.68;1.38;;;;;;;;;;5038214;28;20027;-69
2023/01/17 15:48:40;;;;;;;4.10;2.15;;;;;;;;;;5039523;28;20025;-69
2023/01/17 15:51:10;;;;;;;4.70;1.77;;;;;;;;;;5040324;28;20501;-70
2023/01/17 15:53:39;;;;;;;5.40;2.50;;;;;;;;;;5039291;28;20021;-69
2023/01/17 15:56:23;;;;;;;6.32;2.00;;;;;;;;;;5037908;28;20033;-69
2023/01/17 15:58:49;;;;;;;4.05;1.73;;;;;;;;;;5038225;28;20036;-69
2023/01/17 16:01:16;;;;;;;17.48;5.93;;;;;;;;;;5039413;28;20055;-69
2023/01/17 16:03:53;;;;;;;5.55;2.42;;;;;;;;;;5038468;28;20037;-69
2023/01/17 16:06:48;;;;;;;4.78;1.73;;;;;;;;;;5036526;28;20018;-69
2023/01/17 16:09:21;;;;;;;3.30;1.75;;;;;;;;;;5047626;28;20103;-69
2023/01/17 16:11:46;;;;;;;5.18;2.65;;;;;;;;;;5036163;28;20026;-70
2023/01/17 16:14:12;;;;;;;5.05;1.60;;;;;;;;;;5037686;28;20055;-69
2023/01/17 16:16:37;;;;;;;6.60;2.70;;;;;;;;;;5038757;28;20049;-69
2023/01/17 16:19:04;;;;;;;4.60;1.65;;;;;;;;;;5039209;28;20482;-69
2023/01/17 16:21:30;;;;;;;8.60;2.55;;;;;;;;;;5040759;28;20036;-69
2023/01/17 16:23:57;;;;;;;3.47;1.30;;;;;;;;;;5038956;28;20022;-69